EFKE

Kemi-Tornio

Airport
ICAO code
EFKE
Summary
ICAO Region
EUR
ICAO Territory
Location

Kemi,

Coordinates
65° 46' 43" N , 24° 34' 53" E
KCC
Metar
Observation
EFKE 281020Z AUTO 16006KT 130V190 9999 OVC006 M01/M02 Q1032
Station
Kemi
Date/Time
2022-11-28 10:20:00
Wind direction
160°
Wind speed
06 kts
Lowest cloud amount
overcast
Temperature
-1°C
Dew point
-2°C
Humidity
92%
QNH
1032 hPa
Weather condition
n/a

Description

Kemi-Tornio Airport is an airport north of the city of Kemi, near the town of Lautiosaari east of the Kemijoki (Kemi River) in Finland. The airport is 6 km from Kemi and 18 km from the city of Tornio.

Climatology

Humid Continental climate (Köppen climate classification Dfb) - Variable weather patterns and a large seasonal temperature variance. Summers are often warm and humid with frequent thunderstorms and winters can be very cold with frequent snowfall and persistent snow cover.

Runways

Designator Length Width Surface Rops
18/36 2503 48 ASP Yes/Yes

Airport map

Aerial View

Airport accidents

SKYbrary Partners:

Safety knowledge contributed by: